Airfield :
LOGIN :

Register | Disclaimer

   EN    FR    IT 

 










Legend :    VFR   Marginal VFR   IFR   Intensive IFR   Very Intensive IFR
Visi :
Ceiling :
>= 8 km
>= 3000ft
5 to 8 km
1000 to 3000 ft
1500m to 5 km
500 to 1000 ft
800 to 1500m
200 to 500 ft
< 800m
< 200 ft
Symbols :   Thunderstorms  Fog  Heavy snow  Heavy precipitations  Wind > 20 kt
SIGMETs :     Misc.  Thunderstorms  Icing  Turbulence  Mountain Waves  Volcanic Ashes







- Airport Elevation : 353 ft
- IATA code : LIN


LIML - Milano Linate

CURRENT METAR :
  • 221020Z 26005KT 220V310 CAVOK 28/19 Q1016 NOSIG

EXPIRED METARs :
  • 220950Z 25006KT 200V300 CAVOK 26/19 Q1016 NOSIG
  • 220920Z 25006KT 190V290 CAVOK 26/18 Q1016 NOSIG
  • 220850Z 28004KT 240V340 CAVOK 26/19 Q1016 NOSIG
  • 220820Z VRB02KT CAVOK 25/19 Q1016 NOSIG

TAF TAF LIML
Valid from the 22 at 06:00 until the 23 at 06:00 UTC


220500Z 2206/2306 VRB05KT 9999 SCT060
No reported NOTAMs for that airfield.
1 SIGMET reported for the Milano FIR (LIMM) :
 
Severe turbulence
LIMM SIGMET 5 VALID 220950/221150 LIIP
LIMM MILANO FIR SEV TURB OBS NNE OF LINE N4557 E00855 - N4536 E01349 ABV FL100 MOV E WKN=



MET'MAP, your aeronautical weather chart ! - Copyright ORBIFLY December 2007 - Disclaimer

ORBIFLY MET'MAP TEAM :

Programming & Development : Alexandra Zaïnal
Concept & Development : Baudouin d'Aumeries
Co-Development & Prog : Marc-Olivier Méhu
Technical & hardware support : Manuel Goepfert

Contact : metmap@orbifly.com




SOURCES & CREDITS :

   NOAA